Airport View

Enter AWOS ICAO identifier for current METAR.

ex. KFNL

KIOB 022330Z AUTO 25008G15KT 10SM CLR 28/17 A3003 RMK AO2 PWINO

2 Jun 2020 23:33

Frequency: 120.675

Phone: 859-498-7001

Other Area AWOS: KSYM - KLEX - KRGA - KFGX

TAF KLEX 021720Z 0218/0318 24013G20KT P6SM FEW045 FM030000 22008KT P6SM BKN250 FM031300 24012KT P6SM BKN250